sensor_id;sensor_type;location;lat;lon;timestamp;pressure;altitude;pressure_sealevel;temperature;humidity
73651;BME280;61944;52.538;6.108;2022-12-18T00:02:12;102821.31;;;-1.92;100.00
73651;BME280;61944;52.538;6.108;2022-12-18T00:04:38;102818.56;;;-2.20;100.00
73651;BME280;61944;52.538;6.108;2022-12-18T00:07:03;102815.31;;;-1.89;100.00
73651;BME280;61944;52.538;6.108;2022-12-18T00:09:28;102799.44;;;-2.44;100.00
73651;BME280;61944;52.538;6.108;2022-12-18T00:11:54;102807.09;;;-2.17;100.00
73651;BME280;61944;52.538;6.108;2022-12-18T00:14:19;102802.56;;;-2.23;100.00
73651;BME280;61944;52.538;6.108;2022-12-18T00:16:46;102804.44;;;-2.41;100.00
73651;BME280;61944;52.538;6.108;2022-12-18T00:19:12;102800.88;;;-2.53;100.00
73651;BME280;61944;52.538;6.108;2022-12-18T00:21:41;102783.88;;;-1.98;100.00
73651;BME280;61944;52.538;6.108;2022-12-18T00:24:07;102795.78;;;-1.75;100.00
73651;BME280;61944;52.538;6.108;2022-12-18T00:26:34;102794.19;;;-1.88;100.00
73651;BME280;61944;52.538;6.108;2022-12-18T00:29:12;102791.91;;;-2.08;100.00
73651;BME280;61944;52.538;6.108;2022-12-18T00:31:39;102788.56;;;-2.39;100.00
73651;BME280;61944;52.538;6.108;2022-12-18T00:34:04;102786.97;;;-2.63;100.00
73651;BME280;61944;52.538;6.108;2022-12-18T00:36:32;102770.38;;;-2.57;100.00
73651;BME280;61944;52.538;6.108;2022-12-18T00:38:59;102768.56;;;-2.51;100.00
73651;BME280;61944;52.538;6.108;2022-12-18T00:41:25;102777.06;;;-2.53;100.00
73651;BME280;61944;52.538;6.108;2022-12-18T00:44:12;102784.41;;;-2.41;100.00
73651;BME280;61944;52.538;6.108;2022-12-18T00:46:38;102784.03;;;-2.45;100.00
73651;BME280;61944;52.538;6.108;2022-12-18T00:49:04;102790.13;;;-2.43;100.00
73651;BME280;61944;52.538;6.108;2022-12-18T00:51:29;102787.16;;;-2.53;100.00
73651;BME280;61944;52.538;6.108;2022-12-18T00:53:55;102784.44;;;-2.53;100.00
73651;BME280;61944;52.538;6.108;2022-12-18T00:56:24;102781.22;;;-2.62;100.00
73651;BME280;61944;52.538;6.108;2022-12-18T00:58:49;102787.59;;;-2.33;100.00
73651;BME280;61944;52.538;6.108;2022-12-18T01:01:15;102786.19;;;-2.07;100.00
73651;BME280;61944;52.538;6.108;2022-12-18T01:03:41;102789.50;;;-2.33;100.00
73651;BME280;61944;52.538;6.108;2022-12-18T01:06:08;102780.44;;;-2.34;100.00
73651;BME280;61944;52.538;6.108;2022-12-18T01:08:35;102785.72;;;-2.44;100.00
73651;BME280;61944;52.538;6.108;2022-12-18T01:11:06;102797.50;;;-2.03;100.00
73651;BME280;61944;52.538;6.108;2022-12-18T01:13:32;102790.16;;;-2.14;100.00
73651;BME280;61944;52.538;6.108;2022-12-18T01:15:57;102798.09;;;-2.30;100.00
73651;BME280;61944;52.538;6.108;2022-12-18T01:18:22;102779.47;;;-2.28;100.00
73651;BME280;61944;52.538;6.108;2022-12-18T01:20:48;102779.88;;;-2.48;100.00
73651;BME280;61944;52.538;6.108;2022-12-18T01:23:13;102772.84;;;-2.84;100.00
73651;BME280;61944;52.538;6.108;2022-12-18T01:25:38;102782.66;;;-2.59;100.00
73651;BME280;61944;52.538;6.108;2022-12-18T01:28:04;102778.19;;;-2.89;100.00
73651;BME280;61944;52.538;6.108;2022-12-18T01:30:30;102775.16;;;-2.64;100.00
73651;BME280;61944;52.538;6.108;2022-12-18T01:32:55;102775.59;;;-2.43;100.00
73651;BME280;61944;52.538;6.108;2022-12-18T01:35:20;102780.84;;;-2.54;100.00
73651;BME280;61944;52.538;6.108;2022-12-18T01:37:46;102784.81;;;-2.21;100.00
73651;BME280;61944;52.538;6.108;2022-12-18T01:40:12;102782.25;;;-2.39;100.00
73651;BME280;61944;52.538;6.108;2022-12-18T01:42:37;102780.78;;;-2.71;100.00
73651;BME280;61944;52.538;6.108;2022-12-18T01:47:52;102776.19;;;-3.05;100.00
73651;BME280;61944;52.538;6.108;2022-12-18T01:50:40;102789.13;;;-2.89;100.00
73651;BME280;61944;52.538;6.108;2022-12-18T01:53:13;102796.13;;;-2.58;100.00
73651;BME280;61944;52.538;6.108;2022-12-18T01:55:52;102795.22;;;-2.87;99.70
73651;BME280;61944;52.538;6.108;2022-12-18T01:58:19;102791.19;;;-2.96;100.00
73651;BME280;61944;52.538;6.108;2022-12-18T02:00:48;102791.50;;;-2.69;100.00
73651;BME280;61944;52.538;6.108;2022-12-18T02:03:13;102795.97;;;-3.03;100.00
73651;BME280;61944;52.538;6.108;2022-12-18T02:08:26;102802.63;;;-2.88;100.00
73651;BME280;61944;52.538;6.108;2022-12-18T02:11:05;102798.13;;;-3.05;100.00
73651;BME280;61944;52.538;6.108;2022-12-18T02:19:06;102798.91;;;-2.93;99.68
73651;BME280;61944;52.538;6.108;2022-12-18T02:26:57;102804.66;;;-3.07;100.00
73651;BME280;61944;52.538;6.108;2022-12-18T02:29:32;102800.91;;;-2.65;100.00
73651;BME280;61944;52.538;6.108;2022-12-18T02:32:02;102809.97;;;-2.53;99.02
73651;BME280;61944;52.538;6.108;2022-12-18T02:34:31;102812.47;;;-2.63;99.69
73651;BME280;61944;52.538;6.108;2022-12-18T02:37:00;102816.75;;;-2.55;98.74
73651;BME280;61944;52.538;6.108;2022-12-18T02:39:29;102811.25;;;-2.55;97.70
73651;BME280;61944;52.538;6.108;2022-12-18T02:41:56;102810.03;;;-2.36;96.71
73651;BME280;61944;52.538;6.108;2022-12-18T02:44:22;102808.69;;;-2.74;95.41
73651;BME280;61944;52.538;6.108;2022-12-18T02:46:52;102803.31;;;-2.69;96.50
73651;BME280;61944;52.538;6.108;2022-12-18T02:54:49;102795.88;;;-2.56;97.52
73651;BME280;61944;52.538;6.108;2022-12-18T02:57:29;102789.44;;;-2.50;96.23
73651;BME280;61944;52.538;6.108;2022-12-18T03:00:03;102789.53;;;-2.45;95.83
73651;BME280;61944;52.538;6.108;2022-12-18T03:05:12;102779.88;;;-2.48;95.79
73651;BME280;61944;52.538;6.108;2022-12-18T03:07:59;102779.88;;;-2.48;95.59
73651;BME280;61944;52.538;6.108;2022-12-18T03:10:29;102769.31;;;-2.56;94.90
73651;BME280;61944;52.538;6.108;2022-12-18T03:13:05;102767.28;;;-2.60;95.17
73651;BME280;61944;52.538;6.108;2022-12-18T03:15:35;102755.72;;;-2.62;94.91
73651;BME280;61944;52.538;6.108;2022-12-18T03:18:10;102764.09;;;-2.81;94.98
73651;BME280;61944;52.538;6.108;2022-12-18T03:20:40;102781.97;;;-2.67;95.21
73651;BME280;61944;52.538;6.108;2022-12-18T03:23:11;102776.63;;;-2.85;94.75
73651;BME280;61944;52.538;6.108;2022-12-18T03:25:41;102771.16;;;-2.85;95.57
73651;BME280;61944;52.538;6.108;2022-12-18T03:28:12;102781.38;;;-2.69;94.42
73651;BME280;61944;52.538;6.108;2022-12-18T03:30:40;102773.66;;;-2.72;94.21
73651;BME280;61944;52.538;6.108;2022-12-18T03:33:41;102771.69;;;-2.59;94.45
73651;BME280;61944;52.538;6.108;2022-12-18T03:36:07;102761.88;;;-2.84;94.42
73651;BME280;61944;52.538;6.108;2022-12-18T03:38:33;102776.25;;;-2.65;94.81
73651;BME280;61944;52.538;6.108;2022-12-18T03:41:04;102766.38;;;-2.78;94.42
73651;BME280;61944;52.538;6.108;2022-12-18T03:46:17;102773.50;;;-2.65;94.41
73651;BME280;61944;52.538;6.108;2022-12-18T03:48:48;102761.31;;;-3.10;94.88
73651;BME280;61944;52.538;6.108;2022-12-18T03:51:25;102771.59;;;-2.76;94.35
73651;BME280;61944;52.538;6.108;2022-12-18T03:54:02;102773.41;;;-2.82;94.82
73651;BME280;61944;52.538;6.108;2022-12-18T03:56:32;102767.31;;;-2.72;94.22
73651;BME280;61944;52.538;6.108;2022-12-18T03:58:59;102755.47;;;-3.01;92.80
73651;BME280;61944;52.538;6.108;2022-12-18T04:01:31;102751.78;;;-3.19;93.53
73651;BME280;61944;52.538;6.108;2022-12-18T04:03:59;102755.94;;;-3.04;94.63
73651;BME280;61944;52.538;6.108;2022-12-18T04:06:27;102749.94;;;-2.90;94.93
73651;BME280;61944;52.538;6.108;2022-12-18T04:08:53;102750.31;;;-2.98;93.59
73651;BME280;61944;52.538;6.108;2022-12-18T04:11:19;102753.66;;;-2.96;93.86
73651;BME280;61944;52.538;6.108;2022-12-18T04:13:44;102742.50;;;-3.18;94.63
73651;BME280;61944;52.538;6.108;2022-12-18T04:16:10;102742.94;;;-2.97;95.25
73651;BME280;61944;52.538;6.108;2022-12-18T04:18:35;102747.44;;;-2.91;93.96
73651;BME280;61944;52.538;6.108;2022-12-18T04:21:01;102740.91;;;-3.02;91.95
73651;BME280;61944;52.538;6.108;2022-12-18T04:23:27;102731.88;;;-3.14;93.34
73651;BME280;61944;52.538;6.108;2022-12-18T04:25:53;102737.13;;;-3.13;94.26
73651;BME280;61944;52.538;6.108;2022-12-18T04:28:18;102738.66;;;-3.52;93.76
73651;BME280;61944;52.538;6.108;2022-12-18T04:30:44;102737.34;;;-3.14;94.37
73651;BME280;61944;52.538;6.108;2022-12-18T04:33:11;102748.31;;;-3.14;93.27
73651;BME280;61944;52.538;6.108;2022-12-18T04:35:36;102741.06;;;-3.20;94.24
73651;BME280;61944;52.538;6.108;2022-12-18T04:38:02;102744.16;;;-3.17;93.41
73651;BME280;61944;52.538;6.108;2022-12-18T04:40:27;102746.66;;;-3.15;93.82
73651;BME280;61944;52.538;6.108;2022-12-18T04:42:53;102747.72;;;-3.04;93.93
73651;BME280;61944;52.538;6.108;2022-12-18T04:45:18;102752.34;;;-2.93;93.18
73651;BME280;61944;52.538;6.108;2022-12-18T04:47:43;102752.81;;;-2.96;93.20
73651;BME280;61944;52.538;6.108;2022-12-18T04:50:09;102744.88;;;-3.10;92.26
73651;BME280;61944;52.538;6.108;2022-12-18T04:52:34;102749.53;;;-3.22;91.25
73651;BME280;61944;52.538;6.108;2022-12-18T04:54:59;102747.63;;;-3.10;92.80
73651;BME280;61944;52.538;6.108;2022-12-18T04:57:25;102755.56;;;-3.08;92.12
73651;BME280;61944;52.538;6.108;2022-12-18T04:59:51;102753.91;;;-3.21;91.14
73651;BME280;61944;52.538;6.108;2022-12-18T05:02:16;102755.34;;;-3.30;93.31
73651;BME280;61944;52.538;6.108;2022-12-18T05:04:41;102748.56;;;-3.28;93.52
73651;BME280;61944;52.538;6.108;2022-12-18T05:07:07;102754.97;;;-3.10;93.35
73651;BME280;61944;52.538;6.108;2022-12-18T05:09:32;102757.97;;;-3.35;92.94
73651;BME280;61944;52.538;6.108;2022-12-18T05:11:57;102759.53;;;-3.39;94.20
73651;BME280;61944;52.538;6.108;2022-12-18T05:14:23;102761.31;;;-3.10;92.89
73651;BME280;61944;52.538;6.108;2022-12-18T05:16:48;102753.91;;;-3.21;92.80
73651;BME280;61944;52.538;6.108;2022-12-18T05:19:13;102754.03;;;-3.16;93.80
73651;BME280;61944;52.538;6.108;2022-12-18T05:21:39;102757.72;;;-3.57;91.54
73651;BME280;61944;52.538;6.108;2022-12-18T05:24:04;102765.34;;;-3.59;94.75
73651;BME280;61944;52.538;6.108;2022-12-18T05:26:31;102760.53;;;-3.76;94.42
73651;BME280;61944;52.538;6.108;2022-12-18T05:28:56;102754.50;;;-3.54;95.27
73651;BME280;61944;52.538;6.108;2022-12-18T05:31:21;102758.69;;;-3.40;94.48
73651;BME280;61944;52.538;6.108;2022-12-18T05:33:48;102760.59;;;-3.40;93.18
73651;BME280;61944;52.538;6.108;2022-12-18T05:36:14;102770.22;;;-3.38;93.85
73651;BME280;61944;52.538;6.108;2022-12-18T05:38:39;102777.38;;;-3.25;93.78
73651;BME280;61944;52.538;6.108;2022-12-18T05:41:06;102788.72;;;-3.10;92.69
73651;BME280;61944;52.538;6.108;2022-12-18T05:43:34;102782.25;;;-3.51;93.26
73651;BME280;61944;52.538;6.108;2022-12-18T05:46:13;102772.78;;;-3.78;93.53
73651;BME280;61944;52.538;6.108;2022-12-18T05:48:39;102775.22;;;-3.47;93.87
73651;BME280;61944;52.538;6.108;2022-12-18T05:51:06;102775.72;;;-3.50;93.50
73651;BME280;61944;52.538;6.108;2022-12-18T05:53:32;102776.75;;;-3.51;94.20
73651;BME280;61944;52.538;6.108;2022-12-18T05:56:06;102786.06;;;-3.52;94.10
73651;BME280;61944;52.538;6.108;2022-12-18T05:58:33;102792.63;;;-3.41;94.41
73651;BME280;61944;52.538;6.108;2022-12-18T06:01:06;102798.28;;;-3.54;94.16
73651;BME280;61944;52.538;6.108;2022-12-18T06:03:32;102789.88;;;-3.29;93.66
73651;BME280;61944;52.538;6.108;2022-12-18T06:05:57;102777.63;;;-3.27;92.42
73651;BME280;61944;52.538;6.108;2022-12-18T06:08:22;102781.66;;;-3.41;91.68
73651;BME280;61944;52.538;6.108;2022-12-18T06:10:51;102785.81;;;-3.38;93.21
73651;BME280;61944;52.538;6.108;2022-12-18T06:13:18;102783.34;;;-3.28;92.31
73651;BME280;61944;52.538;6.108;2022-12-18T06:15:43;102776.75;;;-3.51;93.32
73651;BME280;61944;52.538;6.108;2022-12-18T06:18:08;102781.38;;;-3.63;92.31
73651;BME280;61944;52.538;6.108;2022-12-18T06:20:34;102779.84;;;-3.59;94.14
73651;BME280;61944;52.538;6.108;2022-12-18T06:23:01;102779.72;;;-3.64;91.16
73651;BME280;61944;52.538;6.108;2022-12-18T06:25:27;102776.13;;;-3.76;93.41
73651;BME280;61944;52.538;6.108;2022-12-18T06:27:52;102764.63;;;-3.55;92.97
73651;BME280;61944;52.538;6.108;2022-12-18T06:30:18;102761.34;;;-3.87;93.48
73651;BME280;61944;52.538;6.108;2022-12-18T06:32:43;102744.72;;;-3.85;93.56
73651;BME280;61944;52.538;6.108;2022-12-18T06:35:08;102752.22;;;-3.69;92.27
73651;BME280;61944;52.538;6.108;2022-12-18T06:37:34;102746.84;;;-3.76;93.18
73651;BME280;61944;52.538;6.108;2022-12-18T06:39:59;102741.06;;;-4.10;93.24
73651;BME280;61944;52.538;6.108;2022-12-18T06:42:26;102743.63;;;-3.84;94.24
73651;BME280;61944;52.538;6.108;2022-12-18T06:44:51;102751.28;;;-3.63;93.58
73651;BME280;61944;52.538;6.108;2022-12-18T06:47:17;102748.78;;;-3.64;93.11
73651;BME280;61944;52.538;6.108;2022-12-18T06:49:42;102744.84;;;-3.57;92.13
73651;BME280;61944;52.538;6.108;2022-12-18T06:52:08;102736.53;;;-3.62;93.13
73651;BME280;61944;52.538;6.108;2022-12-18T06:54:33;102736.84;;;-3.94;92.13
73651;BME280;61944;52.538;6.108;2022-12-18T06:56:59;102732.38;;;-4.18;93.25
73651;BME280;61944;52.538;6.108;2022-12-18T06:59:24;102746.63;;;-4.16;93.89
73651;BME280;61944;52.538;6.108;2022-12-18T07:01:49;102741.38;;;-3.88;93.50
73651;BME280;61944;52.538;6.108;2022-12-18T07:04:15;102722.53;;;-4.07;93.63
73651;BME280;61944;52.538;6.108;2022-12-18T07:06:40;102714.09;;;-4.06;92.96
73651;BME280;61944;52.538;6.108;2022-12-18T07:09:05;102720.81;;;-3.78;94.16
73651;BME280;61944;52.538;6.108;2022-12-18T07:11:32;102718.06;;;-3.78;93.91
73651;BME280;61944;52.538;6.108;2022-12-18T07:13:58;102728.19;;;-3.79;94.19
73651;BME280;61944;52.538;6.108;2022-12-18T07:16:23;102723.78;;;-3.68;93.66
73651;BME280;61944;52.538;6.108;2022-12-18T07:18:48;102718.81;;;-3.59;93.41
73651;BME280;61944;52.538;6.108;2022-12-18T07:21:16;102722.97;;;-3.57;93.33
73651;BME280;61944;52.538;6.108;2022-12-18T07:23:42;102713.22;;;-3.64;92.30
73651;BME280;61944;52.538;6.108;2022-12-18T07:26:10;102718.56;;;-3.70;93.09
73651;BME280;61944;52.538;6.108;2022-12-18T07:28:37;102723.31;;;-3.77;93.14
73651;BME280;61944;52.538;6.108;2022-12-18T07:31:03;102739.59;;;-3.82;94.66
73651;BME280;61944;52.538;6.108;2022-12-18T07:33:29;102740.47;;;-3.58;92.90
73651;BME280;61944;52.538;6.108;2022-12-18T07:35:54;102734.25;;;-3.77;92.06
73651;BME280;61944;52.538;6.108;2022-12-18T07:38:20;102735.16;;;-4.06;92.99
73651;BME280;61944;52.538;6.108;2022-12-18T07:40:45;102727.34;;;-3.68;93.50
73651;BME280;61944;52.538;6.108;2022-12-18T07:43:10;102724.53;;;-3.49;92.80
73651;BME280;61944;52.538;6.108;2022-12-18T07:45:36;102727.97;;;-3.54;92.35
73651;BME280;61944;52.538;6.108;2022-12-18T07:48:01;102728.44;;;-3.57;93.64
73651;BME280;61944;52.538;6.108;2022-12-18T07:50:26;102738.09;;;-3.42;92.76
73651;BME280;61944;52.538;6.108;2022-12-18T07:52:52;102736.19;;;-3.30;91.73
73651;BME280;61944;52.538;6.108;2022-12-18T07:55:17;102741.31;;;-3.22;91.65
73651;BME280;61944;52.538;6.108;2022-12-18T07:57:42;102728.56;;;-3.28;91.67
73651;BME280;61944;52.538;6.108;2022-12-18T08:00:08;102723.19;;;-3.23;92.31
73651;BME280;61944;52.538;6.108;2022-12-18T08:02:34;102709.16;;;-3.27;91.89
73651;BME280;61944;52.538;6.108;2022-12-18T08:04:59;102720.38;;;-3.52;91.82
73651;BME280;61944;52.538;6.108;2022-12-18T08:07:24;102712.97;;;-3.39;92.42
73651;BME280;61944;52.538;6.108;2022-12-18T08:09:50;102698.69;;;-3.41;91.87
73651;BME280;61944;52.538;6.108;2022-12-18T08:12:15;102693.44;;;-3.31;91.64
73651;BME280;61944;52.538;6.108;2022-12-18T08:14:40;102687.25;;;-3.38;91.45
73651;BME280;61944;52.538;6.108;2022-12-18T08:17:06;102701.66;;;-3.31;90.91
73651;BME280;61944;52.538;6.108;2022-12-18T08:19:31;102697.59;;;-3.17;92.21
73651;BME280;61944;52.538;6.108;2022-12-18T08:21:56;102699.72;;;-3.19;91.54
73651;BME280;61944;52.538;6.108;2022-12-18T08:24:22;102683.66;;;-3.27;91.19
73651;BME280;61944;52.538;6.108;2022-12-18T08:26:47;102676.06;;;-3.49;92.93
73651;BME280;61944;52.538;6.108;2022-12-18T08:29:13;102672.97;;;-3.40;92.96
73651;BME280;61944;52.538;6.108;2022-12-18T08:31:38;102677.50;;;-3.34;92.66
73651;BME280;61944;52.538;6.108;2022-12-18T08:34:03;102687.63;;;-3.47;91.49
73651;BME280;61944;52.538;6.108;2022-12-18T08:36:29;102689.44;;;-3.00;92.47
73651;BME280;61944;52.538;6.108;2022-12-18T08:38:54;102682.88;;;-3.39;92.40
73651;BME280;61944;52.538;6.108;2022-12-18T08:41:20;102690.31;;;-3.23;92.32
73651;BME280;61944;52.538;6.108;2022-12-18T08:43:46;102684.63;;;-3.33;91.42
73651;BME280;61944;52.538;6.108;2022-12-18T08:46:34;102681.28;;;-3.23;90.73
73651;BME280;61944;52.538;6.108;2022-12-18T08:49:00;102680.69;;;-3.25;92.02
73651;BME280;61944;52.538;6.108;2022-12-18T08:51:25;102679.38;;;-3.23;90.62
73651;BME280;61944;52.538;6.108;2022-12-18T08:53:51;102663.56;;;-3.44;91.09
73651;BME280;61944;52.538;6.108;2022-12-18T08:56:16;102670.47;;;-3.42;91.63
73651;BME280;61944;52.538;6.108;2022-12-18T08:58:42;102671.41;;;-3.48;91.67
73651;BME280;61944;52.538;6.108;2022-12-18T09:01:09;102667.00;;;-3.25;91.73
73651;BME280;61944;52.538;6.108;2022-12-18T09:03:35;102668.69;;;-3.24;91.36
73651;BME280;61944;52.538;6.108;2022-12-18T09:06:01;102676.78;;;-3.41;91.95
73651;BME280;61944;52.538;6.108;2022-12-18T09:08:27;102692.13;;;-3.29;92.34
73651;BME280;61944;52.538;6.108;2022-12-18T09:10:52;102694.03;;;-3.29;92.47
73651;BME280;61944;52.538;6.108;2022-12-18T09:13:18;102691.88;;;-3.15;91.86
73651;BME280;61944;52.538;6.108;2022-12-18T09:15:46;102678.53;;;-3.12;91.53
73651;BME280;61944;52.538;6.108;2022-12-18T09:18:13;102666.50;;;-3.11;91.54
73651;BME280;61944;52.538;6.108;2022-12-18T09:20:39;102668.84;;;-3.02;91.57
73651;BME280;61944;52.538;6.108;2022-12-18T09:23:05;102668.25;;;-2.93;91.50
73651;BME280;61944;52.538;6.108;2022-12-18T09:25:31;102678.84;;;-2.96;91.02
73651;BME280;61944;52.538;6.108;2022-12-18T09:27:59;102688.69;;;-3.24;92.47
73651;BME280;61944;52.538;6.108;2022-12-18T09:30:25;102689.44;;;-3.00;92.28
73651;BME280;61944;52.538;6.108;2022-12-18T09:32:50;102679.38;;;-3.23;92.35
73651;BME280;61944;52.538;6.108;2022-12-18T09:35:15;102684.00;;;-3.12;92.98
73651;BME280;61944;52.538;6.108;2022-12-18T09:37:40;102679.66;;;-2.96;92.02
73651;BME280;61944;52.538;6.108;2022-12-18T09:40:13;102678.34;;;-2.93;92.07
73651;BME280;61944;52.538;6.108;2022-12-18T09:42:39;102688.75;;;-3.07;92.59
73651;BME280;61944;52.538;6.108;2022-12-18T09:45:12;102701.72;;;-3.02;93.00
73651;BME280;61944;52.538;6.108;2022-12-18T09:47:40;102701.13;;;-2.93;92.12
73651;BME280;61944;52.538;6.108;2022-12-18T09:50:24;102705.00;;;-2.77;92.32
73651;BME280;61944;52.538;6.108;2022-12-18T09:52:55;102680.25;;;-2.82;92.17
73651;BME280;61944;52.538;6.108;2022-12-18T09:55:28;102661.59;;;-2.97;93.72
73651;BME280;61944;52.538;6.108;2022-12-18T09:58:00;102645.19;;;-2.80;92.39
73651;BME280;61944;52.538;6.108;2022-12-18T10:00:27;102642.69;;;-2.81;91.65
73651;BME280;61944;52.538;6.108;2022-12-18T10:02:59;102626.94;;;-3.03;93.00
73651;BME280;61944;52.538;6.108;2022-12-18T10:05:34;102619.31;;;-2.55;97.37
73651;BME280;61944;52.538;6.108;2022-12-18T10:10:56;102603.94;;;-3.02;93.48
73651;BME280;61944;52.538;6.108;2022-12-18T10:13:31;102597.47;;;-2.67;92.88
73651;BME280;61944;52.538;6.108;2022-12-18T10:16:16;102600.91;;;-2.09;92.52
73651;BME280;61944;52.538;6.108;2022-12-18T10:21:28;102587.25;;;-1.04;90.77
73651;BME280;61944;52.538;6.108;2022-12-18T10:26:44;102589.50;;;-2.52;92.22
73651;BME280;61944;52.538;6.108;2022-12-18T10:29:12;102588.34;;;-2.56;92.83
73651;BME280;61944;52.538;6.108;2022-12-18T10:31:37;102587.41;;;-2.61;93.43
73651;BME280;61944;52.538;6.108;2022-12-18T10:34:15;102579.09;;;-2.67;93.50
73651;BME280;61944;52.538;6.108;2022-12-18T10:36:41;102587.53;;;-2.85;94.45
73651;BME280;61944;52.538;6.108;2022-12-18T10:39:18;102584.66;;;-2.61;93.57
73651;BME280;61944;52.538;6.108;2022-12-18T10:41:45;102579.94;;;-2.49;93.57
73651;BME280;61944;52.538;6.108;2022-12-18T10:44:22;102577.63;;;-2.57;93.05
73651;BME280;61944;52.538;6.108;2022-12-18T10:46:50;102571.72;;;-2.49;93.49
73651;BME280;61944;52.538;6.108;2022-12-18T10:49:25;102578.31;;;-2.50;93.09
73651;BME280;61944;52.538;6.108;2022-12-18T10:52:24;102567.81;;;-2.53;93.01
73651;BME280;61944;52.538;6.108;2022-12-18T10:57:34;102561.75;;;-2.21;93.16
73651;BME280;61944;52.538;6.108;2022-12-18T11:00:24;102557.53;;;-2.46;93.72
73651;BME280;61944;52.538;6.108;2022-12-18T11:02:50;102556.13;;;-2.32;93.40
73651;BME280;61944;52.538;6.108;2022-12-18T11:05:35;102548.56;;;-2.41;93.14
73651;BME280;61944;52.538;6.108;2022-12-18T11:08:02;102547.22;;;-2.39;92.71
73651;BME280;61944;52.538;6.108;2022-12-18T11:10:36;102544.88;;;-2.30;93.09
73651;BME280;61944;52.538;6.108;2022-12-18T11:13:29;102552.38;;;-2.26;93.31
73651;BME280;61944;52.538;6.108;2022-12-18T11:15:56;102550.53;;;-2.20;91.12
73651;BME280;61944;52.538;6.108;2022-12-18T11:18:27;102562.34;;;-2.19;92.78
73651;BME280;61944;52.538;6.108;2022-12-18T11:20:55;102557.88;;;-2.26;92.66
73651;BME280;61944;52.538;6.108;2022-12-18T11:23:23;102568.50;;;-2.12;92.87
73651;BME280;61944;52.538;6.108;2022-12-18T11:26:00;102567.50;;;-1.67;96.45
73651;BME280;61944;52.538;6.108;2022-12-18T11:28:49;102558.59;;;0.84;100.00
73651;BME280;61944;52.538;6.108;2022-12-18T11:34:05;102553.09;;;-1.57;91.47
73651;BME280;61944;52.538;6.108;2022-12-18T11:36:33;102533.63;;;-1.95;92.33
73651;BME280;61944;52.538;6.108;2022-12-18T11:41:50;102518.59;;;-2.09;93.64
73651;BME280;61944;52.538;6.108;2022-12-18T11:44:51;102512.94;;;-2.19;94.49
73651;BME280;61944;52.538;6.108;2022-12-18T11:50:16;102505.84;;;-1.98;94.10
73651;BME280;61944;52.538;6.108;2022-12-18T11:52:43;102496.31;;;-1.96;93.69
73651;BME280;61944;52.538;6.108;2022-12-18T11:55:28;102506.03;;;-2.05;93.76
73651;BME280;61944;52.538;6.108;2022-12-18T12:04:13;102502.34;;;-1.00;90.21
73651;BME280;61944;52.538;6.108;2022-12-18T12:14:54;102456.22;;;-1.75;93.39
73651;BME280;61944;52.538;6.108;2022-12-18T12:17:54;102455.50;;;-1.65;93.28
73651;BME280;61944;52.538;6.108;2022-12-18T12:20:47;102441.16;;;-1.72;93.13
73651;BME280;61944;52.538;6.108;2022-12-18T12:26:16;102428.38;;;-1.84;93.44
73651;BME280;61944;52.538;6.108;2022-12-18T12:35:15;102432.19;;;-1.63;93.11
73651;BME280;61944;52.538;6.108;2022-12-18T12:40:35;102418.56;;;-1.52;92.02
73651;BME280;61944;52.538;6.108;2022-12-18T12:43:21;102421.28;;;-1.57;93.00
73651;BME280;61944;52.538;6.108;2022-12-18T12:46:00;102412.56;;;-1.49;91.92
73651;BME280;61944;52.538;6.108;2022-12-18T12:48:35;102411.34;;;-1.58;92.29
73651;BME280;61944;52.538;6.108;2022-12-18T12:51:07;102404.00;;;-1.53;92.18
73651;BME280;61944;52.538;6.108;2022-12-18T12:53:35;102395.66;;;-1.63;92.31
73651;BME280;61944;52.538;6.108;2022-12-18T12:56:04;102388.16;;;-1.46;92.62
73651;BME280;61944;52.538;6.108;2022-12-18T12:58:44;102389.16;;;-1.57;92.22
73651;BME280;61944;52.538;6.108;2022-12-18T13:01:25;102389.75;;;-1.50;92.25
73651;BME280;61944;52.538;6.108;2022-12-18T13:04:08;102382.41;;;-1.44;91.85
73651;BME280;61944;52.538;6.108;2022-12-18T13:06:43;102384.31;;;-1.45;92.50
73651;BME280;61944;52.538;6.108;2022-12-18T13:09:10;102381.00;;;-1.47;91.83
73651;BME280;61944;52.538;6.108;2022-12-18T13:11:39;102378.16;;;-1.57;93.03
73651;BME280;61944;52.538;6.108;2022-12-18T13:14:29;102385.41;;;-1.46;93.00
73651;BME280;61944;52.538;6.108;2022-12-18T13:19:49;102377.34;;;-1.25;92.51
73651;BME280;61944;52.538;6.108;2022-12-18T13:22:22;102381.78;;;-1.24;92.36
73651;BME280;61944;52.538;6.108;2022-12-18T13:24:47;102377.00;;;-1.34;92.55
73651;BME280;61944;52.538;6.108;2022-12-18T13:30:42;102375.09;;;-1.33;92.49
73651;BME280;61944;52.538;6.108;2022-12-18T13:40:58;102354.50;;;0.12;88.74
73651;BME280;61944;52.538;6.108;2022-12-18T13:43:27;102352.84;;;-0.99;92.05
73651;BME280;61944;52.538;6.108;2022-12-18T13:48:26;102349.63;;;-1.24;93.34
73651;BME280;61944;52.538;6.108;2022-12-18T13:50:57;102342.69;;;-1.31;94.26
73651;BME280;61944;52.538;6.108;2022-12-18T13:53:27;102338.97;;;-1.20;93.49
73651;BME280;61944;52.538;6.108;2022-12-18T13:55:54;102347.03;;;-1.35;93.59
73651;BME280;61944;52.538;6.108;2022-12-18T13:58:20;102340.47;;;-1.34;93.59
73651;BME280;61944;52.538;6.108;2022-12-18T14:00:45;102336.63;;;-1.33;93.22
73651;BME280;61944;52.538;6.108;2022-12-18T14:03:26;102325.16;;;-1.25;92.45
73651;BME280;61944;52.538;6.108;2022-12-18T14:05:54;102323.53;;;-1.26;92.70
73651;BME280;61944;52.538;6.108;2022-12-18T14:08:21;102336.16;;;-1.25;92.42
73651;BME280;61944;52.538;6.108;2022-12-18T14:10:48;102346.09;;;-1.19;91.93
73651;BME280;61944;52.538;6.108;2022-12-18T14:13:20;102344.47;;;-1.15;91.20
73651;BME280;61944;52.538;6.108;2022-12-18T14:15:47;102346.78;;;-1.02;90.38
73651;BME280;61944;52.538;6.108;2022-12-18T14:18:48;102332.94;;;-1.12;91.11
73651;BME280;61944;52.538;6.108;2022-12-18T14:21:19;102334.63;;;-1.11;90.22
73651;BME280;61944;52.538;6.108;2022-12-18T14:23:45;102328.56;;;-1.13;89.62
73651;BME280;61944;52.538;6.108;2022-12-18T14:26:28;102329.03;;;-1.21;90.28
73651;BME280;61944;52.538;6.108;2022-12-18T14:28:59;102324.13;;;-1.19;90.57